Terminal Aerodrome Forecast
Issued by NWS Louisville, KY

Home | Current Version | Previous Version | Text Only | Print | Product List | Glossary On
Versions: 1 2 3 4 5 6 7 8 9 10 11 12 13 14
380
FTUS43 KLMK 231120
TAFLEX
TAF
KLEX 231120Z 2312/2412 07008KT P6SM SCT250
     FM231600 15008KT P6SM SCT100 BKN250
     FM232300 17010KT P6SM SCT035 BKN100=

USA.gov is the U.S. government's official web portal to all federal, state and local government web resources and services.